Time;durP1;ratioP1;P1;durP2;ratioP2;P2;SDS_P1;SDS_P2;PMS_P1;PMS_P2;Temp;Humidity;BMP_temperature;BMP_pressure;BME280_temperature;BME280_humidity;BME280_pressure;Samples;Min_cycle;Max_cycle;Signal;HPM_P1;HPM_P2
2021/05/15 00:04:52;;;;;;;9.20;6.10;;;;;;;11.99;80.29;98350.81;3955746;88;21122;-83
2021/05/15 00:10:53;;;;;;;6.83;5.35;;;;;;;12.11;80.71;98354.47;3953202;88;21677;-84
2021/05/15 00:16:54;;;;;;;7.75;5.60;;;;;;;12.24;80.62;98348.72;3965862;87;21107;-84
2021/05/15 00:22:56;;;;;;;15.88;5.92;;;;;;;12.18;80.45;98350.91;3977636;87;21759;-84
2021/05/15 00:28:57;;;;;;;6.95;4.37;;;;;;;12.16;80.49;98349.94;3921468;90;21090;-84
2021/05/15 00:34:58;;;;;;;7.65;4.70;;;;;;;12.18;80.40;98354.41;3954453;88;21110;-85
2021/05/15 00:40:59;;;;;;;8.73;4.80;;;;;;;12.14;80.39;98353.66;3955009;88;21677;-84
2021/05/15 00:47:02;;;;;;;7.50;4.62;;;;;;;12.04;80.52;98354.48;3957698;87;21146;-84
2021/05/15 00:53:06;;;;;;;7.05;4.15;;;;;;;12.06;80.57;98356.25;3948729;89;21103;-84
2021/05/15 00:59:08;;;;;;;9.40;4.83;;;;;;;12.08;80.65;98358.02;3930506;89;21040;-84
2021/05/15 01:05:12;;;;;;;9.40;4.85;;;;;;;12.02;80.38;98355.50;3949571;89;21154;-84
2021/05/15 01:11:19;;;;;;;5.58;3.92;;;;;;;11.74;80.40;98352.09;3940929;88;21450;-84
2021/05/15 01:17:20;;;;;;;5.75;3.92;;;;;;;11.56;80.72;98360.34;3945944;88;21110;-84
2021/05/15 01:23:22;;;;;;;9.63;4.42;;;;;;;11.61;81.06;98355.03;3934243;89;21114;-84
2021/05/15 01:29:23;;;;;;;6.22;4.08;;;;;;;11.56;80.84;98356.23;3935315;88;21180;-84
2021/05/15 01:35:24;;;;;;;7.35;3.20;;;;;;;11.46;81.31;98361.17;3940099;88;21614;-84
2021/05/15 01:41:26;;;;;;;6.85;3.67;;;;;;;11.54;81.28;98358.58;3931825;88;21139;-84
2021/05/15 01:47:27;;;;;;;6.37;4.40;;;;;;;11.58;81.41;98359.94;3933690;88;21213;-84
2021/05/15 01:53:38;;;;;;;6.70;4.25;;;;;;;11.57;81.20;98360.55;3966802;88;21654;-83
2021/05/15 01:59:40;;;;;;;7.22;4.65;;;;;;;11.56;81.62;98358.97;3948704;89;21104;-83
2021/05/15 02:05:42;;;;;;;6.20;4.35;;;;;;;11.51;81.56;98355.26;3949370;89;21116;-84
2021/05/15 02:11:43;;;;;;;6.30;4.45;;;;;;;11.50;81.59;98359.19;3949887;89;21103;-83
2021/05/15 02:17:45;;;;;;;6.35;4.67;;;;;;;11.44;81.72;98353.92;3950500;89;21620;-84
2021/05/15 02:23:46;;;;;;;8.13;4.47;;;;;;;11.47;81.83;98352.34;3949226;89;21387;-84
2021/05/15 02:29:47;;;;;;;6.00;4.00;;;;;;;11.47;82.00;98351.76;3950519;89;21080;-84
2021/05/15 02:35:48;;;;;;;8.63;4.30;;;;;;;11.43;81.86;98351.00;3950364;89;21100;-84
2021/05/15 02:41:50;;;;;;;6.72;4.22;;;;;;;11.39;81.99;98356.27;3950276;89;21432;-84
2021/05/15 02:47:53;;;;;;;7.75;4.00;;;;;;;11.37;82.06;98351.80;3928092;86;71280;-84
2021/05/15 02:53:56;;;;;;;7.67;4.45;;;;;;;11.31;81.82;98359.62;3886160;90;21153;-83
2021/05/15 02:59:57;;;;;;;7.75;4.42;;;;;;;11.16;81.59;98359.45;4006091;87;21074;-84
2021/05/15 03:05:59;;;;;;;8.13;4.80;;;;;;;11.03;81.97;98367.88;4006931;87;21666;-84
2021/05/15 03:12:00;;;;;;;6.00;4.58;;;;;;;10.93;82.08;98366.70;4006492;87;21069;-84
2021/05/15 03:18:01;;;;;;;8.38;5.33;;;;;;;10.84;82.01;98366.33;4007324;87;21097;-84
2021/05/15 03:24:03;;;;;;;5.03;3.65;;;;;;;10.80;82.23;98366.92;4008477;87;21118;-85
2021/05/15 03:30:11;;;;;;;6.72;4.80;;;;;;;10.73;82.34;98364.16;4007443;87;21934;-84
2021/05/15 03:36:13;;;;;;;7.22;5.12;;;;;;;10.71;82.35;98365.14;4006017;87;21807;-83
2021/05/15 03:42:15;;;;;;;8.78;4.95;;;;;;;10.62;82.48;98362.01;4006410;87;21710;-84
2021/05/15 03:48:20;;;;;;;6.25;3.98;;;;;;;10.67;82.74;98366.31;4009392;87;21106;-84
2021/05/15 03:54:20;;;;;;;11.33;4.92;;;;;;;10.81;82.93;98368.48;4024279;86;21140;-85
2021/05/15 04:00:22;;;;;;;7.25;4.33;;;;;;;10.91;82.92;98366.34;3918019;88;21750;-84
2021/05/15 04:06:23;;;;;;;8.38;4.53;;;;;;;11.13;83.03;98380.00;4019643;87;21104;-84
2021/05/15 04:12:30;;;;;;;6.05;3.83;;;;;;;11.26;82.79;98379.80;4018951;87;21058;-84
2021/05/15 04:18:30;;;;;;;7.12;3.67;;;;;;;11.36;82.82;98377.61;3943131;89;21128;-84
2021/05/15 04:24:41;;;;;;;5.45;3.33;;;;;;;11.46;82.73;98385.05;3940399;89;21108;-83
2021/05/15 04:30:43;;;;;;;4.47;3.08;;;;;;;11.57;82.41;98388.54;3912594;89;21146;-83
2021/05/15 04:36:44;;;;;;;7.30;3.40;;;;;;;11.62;82.15;98393.02;3911950;89;21119;-83
2021/05/15 04:42:46;;;;;;;4.60;3.52;;;;;;;11.64;82.00;98403.03;3911893;89;21166;-83
2021/05/15 04:48:47;;;;;;;7.62;4.35;;;;;;;11.69;82.01;98408.12;3920917;89;21161;-83
2021/05/15 04:54:48;;;;;;;8.73;5.15;;;;;;;11.83;82.05;98405.33;3942305;89;21109;-84
2021/05/15 05:00:50;;;;;;;9.50;6.37;;;;;;;12.06;81.95;98411.12;3941867;89;21840;-83
2021/05/15 05:06:52;;;;;;;9.28;5.20;;;;;;;12.23;81.76;98408.13;3943210;89;21194;-84
2021/05/15 05:12:55;;;;;;;8.15;3.87;;;;;;;12.34;81.47;98409.61;4006402;87;21657;-85
2021/05/15 05:18:56;;;;;;;3.98;3.08;;;;;;;12.59;81.16;98417.73;4008566;87;21130;-84
2021/05/15 05:24:57;;;;;;;4.95;3.25;;;;;;;12.90;80.88;98420.05;3953156;89;21131;-84
2021/05/15 05:30:59;;;;;;;5.62;2.90;;;;;;;13.18;80.22;98418.48;4006604;87;21113;-84
2021/05/15 05:37:01;;;;;;;6.67;3.22;;;;;;;13.41;79.79;98424.95;4007203;87;21671;-83
2021/05/15 05:43:02;;;;;;;5.85;2.90;;;;;;;13.60;79.35;98425.76;4006938;87;21144;-83
2021/05/15 05:49:04;;;;;;;4.37;3.02;;;;;;;13.74;79.00;98442.12;4008874;87;21173;-85
2021/05/15 05:55:07;;;;;;;4.22;2.85;;;;;;;13.87;78.54;98438.25;4020359;87;21096;-85
2021/05/15 06:01:09;;;;;;;2.85;2.05;;;;;;;13.95;78.14;98437.74;4019721;87;21582;-84
2021/05/15 06:07:16;;;;;;;4.53;2.40;;;;;;;14.04;77.70;98439.44;4019628;87;21729;-84
2021/05/15 06:13:19;;;;;;;3.12;2.10;;;;;;;14.16;77.08;98443.02;4019951;87;21092;-84
2021/05/15 06:19:20;;;;;;;6.08;4.17;;;;;;;14.34;76.79;98446.17;4019425;87;21131;-83
2021/05/15 06:25:22;;;;;;;7.72;4.30;;;;;;;14.57;76.22;98447.05;4018917;87;21125;-84
2021/05/15 06:31:24;;;;;;;5.05;3.47;;;;;;;14.82;75.56;98444.73;4019736;87;21644;-84
2021/05/15 06:37:25;;;;;;;6.10;3.37;;;;;;;14.93;75.18;98441.22;3943936;89;21600;-85
2021/05/15 06:43:26;;;;;;;6.33;3.55;;;;;;;15.11;74.97;98447.22;3912312;89;21239;-83
2021/05/15 06:49:28;;;;;;;4.17;3.17;;;;;;;15.15;74.14;98439.70;3914510;89;21134;-85
2021/05/15 06:55:33;;;;;;;3.20;2.47;;;;;;;15.53;74.02;98442.41;3926316;89;21972;-84
2021/05/15 07:01:35;;;;;;;3.80;3.08;;;;;;;15.84;73.56;98438.13;4016643;87;21131;-84
2021/05/15 07:07:36;;;;;;;5.00;2.70;;;;;;;15.98;73.01;98432.34;4017118;87;21731;-85
2021/05/15 07:13:37;;;;;;;4.72;3.27;;;;;;;16.26;72.77;98435.91;4014732;87;21148;-85
2021/05/15 07:19:39;;;;;;;6.72;3.62;;;;;;;16.47;69.87;98436.30;4016612;87;21137;-84
2021/05/15 07:25:40;;;;;;;4.58;3.72;;;;;;;16.84;70.14;98429.55;4015081;87;21106;-85
2021/05/15 07:31:42;;;;;;;5.50;2.62;;;;;;;17.18;68.93;98433.47;3946199;89;21109;-85
2021/05/15 07:37:43;;;;;;;3.60;1.90;;;;;;;18.00;65.83;98434.34;4015753;87;21097;-84
2021/05/15 07:43:44;;;;;;;5.67;2.27;;;;;;;18.59;67.98;98425.54;4017826;87;21435;-83
2021/05/15 07:49:46;;;;;;;2.95;1.90;;;;;;;18.67;65.55;98426.28;4016903;87;21145;-84
2021/05/15 07:55:49;;;;;;;6.37;2.35;;;;;;;18.79;64.86;98433.07;4020337;87;21132;-83
2021/05/15 08:01:50;;;;;;;3.00;2.17;;;;;;;18.43;65.18;98435.34;4019904;87;21184;-84
2021/05/15 08:07:51;;;;;;;2.85;2.15;;;;;;;18.78;64.32;98434.90;3942263;89;21092;-85
2021/05/15 08:13:53;;;;;;;5.58;3.12;;;;;;;18.82;64.15;98435.55;3913374;89;21635;-84
2021/05/15 08:19:54;;;;;;;6.58;3.05;;;;;;;18.37;61.48;98440.61;3910248;89;21190;-84
2021/05/15 08:25:55;;;;;;;3.85;2.25;;;;;;;18.25;62.28;98438.59;4018450;87;21120;-85
2021/05/15 08:31:57;;;;;;;2.83;2.05;;;;;;;18.39;62.68;98438.21;3942545;89;21116;-85
2021/05/15 08:37:59;;;;;;;3.65;2.70;;;;;;;18.80;62.24;98441.55;3912244;89;21131;-83
2021/05/15 08:44:02;;;;;;;5.53;2.98;;;;;;;19.16;59.37;98447.54;3914050;89;21059;-84
2021/05/15 08:50:09;;;;;;;4.67;2.40;;;;;;;19.14;60.81;98447.83;4020727;87;21248;-85
2021/05/15 08:56:10;;;;;;;2.67;1.80;;;;;;;19.27;60.75;98453.53;4019646;87;21058;-85
2021/05/15 09:02:17;;;;;;;3.02;2.00;;;;;;;19.50;61.11;98448.23;3942098;89;21120;-86
2021/05/15 09:08:19;;;;;;;5.72;2.15;;;;;;;19.85;59.88;98449.22;3909542;89;21662;-85
2021/05/15 09:14:25;;;;;;;3.15;1.90;;;;;;;20.29;59.54;98454.23;3912355;89;21162;-86
2021/05/15 09:20:32;;;;;;;4.47;2.40;;;;;;;20.59;58.20;98454.91;4020441;87;21149;-85
2021/05/15 09:26:34;;;;;;;4.80;2.20;;;;;;;20.72;57.83;98446.48;3943886;89;21178;-86
2021/05/15 09:32:36;;;;;;;2.90;2.30;;;;;;;21.20;57.56;98452.14;3911895;89;21718;-85
2021/05/15 09:38:38;;;;;;;4.42;2.00;;;;;;;21.13;56.19;98451.02;3887849;89;22684;-84
2021/05/15 09:44:40;;;;;;;2.33;1.82;;;;;;;21.24;56.40;98449.19;3912297;89;21063;-86
2021/05/15 09:50:49;;;;;;;2.37;1.67;;;;;;;21.58;54.61;98438.61;3911062;89;21698;-85
2021/05/15 09:57:10;;;;;;;4.03;2.20;;;;;;;21.11;55.27;98443.73;3912710;89;21063;-85
2021/05/15 10:03:31;;;;;;;2.65;1.82;;;;;;;21.14;54.44;98443.45;4018522;87;21078;-84
2021/05/15 10:09:35;;;;;;;2.83;2.08;;;;;;;21.34;52.94;98442.43;4020270;87;21065;-86
2021/05/15 10:15:42;;;;;;;27.85;7.08;;;;;;;21.66;54.63;98437.70;3945440;89;21096;-85
2021/05/15 10:21:44;;;;;;;2.75;2.08;;;;;;;21.82;53.10;98431.09;3915700;89;21663;-84
2021/05/15 10:27:46;;;;;;;4.83;1.82;;;;;;;21.89;50.58;98424.61;3913236;89;21211;-84
2021/05/15 10:33:48;;;;;;;2.95;2.00;;;;;;;22.39;51.28;98412.81;3912283;89;21653;-86
2021/05/15 10:39:51;;;;;;;4.22;1.92;;;;;;;22.66;51.58;98421.13;4021347;87;21141;-85
2021/05/15 10:45:52;;;;;;;2.12;1.42;;;;;;;21.73;50.15;98414.52;4021161;87;21590;-83
2021/05/15 10:52:08;;;;;;;1.82;1.50;;;;;;;22.28;50.38;98408.95;3945783;89;21083;-85
2021/05/15 10:58:13;;;;;;;1.85;1.50;;;;;;;22.52;49.82;98393.13;4015193;87;21145;-85
2021/05/15 11:04:31;;;;;;;2.60;1.50;;;;;;;21.75;50.70;98398.76;4014589;87;21056;-85
2021/05/15 11:10:35;;;;;;;1.60;1.30;;;;;;;21.61;48.54;98393.13;4016946;87;21077;-85
2021/05/15 11:16:37;;;;;;;1.65;1.37;;;;;;;21.24;49.49;98393.52;4015447;87;21106;-84
2021/05/15 11:22:54;;;;;;;3.12;1.32;;;;;;;21.57;49.36;98379.20;3945835;89;21378;-84
2021/05/15 11:29:15;;;;;;;;;;;;;;;22.11;49.18;98372.27;4019095;87;21624;-85
2021/05/15 11:35:18;;;;;;;2.60;1.50;;;;;;;22.73;46.93;98373.98;4013554;87;20612;-85
2021/05/15 11:41:20;;;;;;;10.28;3.25;;;;;;;22.02;47.62;98366.69;4016930;87;21664;-85
2021/05/15 11:47:26;;;;;;;10.65;4.37;;;;;;;21.80;48.89;98379.26;4017067;87;21167;-85
2021/05/15 11:53:31;;;;;;;4.05;1.35;;;;;;;21.54;47.76;98375.95;4016935;87;21098;-84
2021/05/15 11:59:32;;;;;;;3.22;2.05;;;;;;;21.33;48.11;98373.44;3943708;89;21108;-85
2021/05/15 12:05:34;;;;;;;3.22;2.15;;;;;;;21.95;47.49;98359.27;3911195;89;21239;-85
2021/05/15 12:11:35;;;;;;;4.08;1.40;;;;;;;21.91;45.80;98360.81;3912145;89;21721;-85
2021/05/15 12:17:39;;;;;;;3.50;1.50;;;;;;;21.69;46.20;98359.56;3912559;89;21159;-85
2021/05/15 12:23:42;;;;;;;2.40;1.15;;;;;;;21.67;46.46;98341.77;3892146;88;21110;-85
2021/05/15 12:29:44;;;;;;;2.17;1.45;;;;;;;21.56;46.38;98340.07;4019160;87;21116;-85
2021/05/15 12:36:05;;;;;;;2.58;1.35;;;;;;;21.20;47.05;98333.06;4018845;87;21153;-85
2021/05/15 12:42:06;;;;;;;4.80;1.80;;;;;;;21.10;46.55;98336.45;4019549;87;21232;-85
2021/05/15 12:48:39;;;;;;;2.90;1.50;;;;;;;21.26;46.55;98326.44;3942772;89;21179;-84
2021/05/15 12:54:40;;;;;;;2.25;1.65;;;;;;;21.56;47.36;98317.15;3919107;89;21683;-85
2021/05/15 13:01:10;;;;;;;1.77;1.55;;;;;;;21.03;42.92;98315.10;3919410;89;21157;-84
2021/05/15 13:07:33;;;;;;;4.75;1.75;;;;;;;21.54;43.97;98294.59;3919447;89;21165;-84
2021/05/15 13:13:35;;;;;;;2.87;1.87;;;;;;;21.95;44.11;98286.82;3920745;89;21056;-84
2021/05/15 13:19:36;;;;;;;8.30;2.80;;;;;;;21.91;44.78;98282.80;3920589;89;21124;-84
2021/05/15 13:25:38;;;;;;;3.67;1.62;;;;;;;21.71;43.33;98276.92;3921514;89;21092;-85
2021/05/15 13:31:40;;;;;;;2.00;1.60;;;;;;;21.49;43.33;98275.70;4006867;87;21145;-85
2021/05/15 13:37:41;;;;;;;2.95;1.65;;;;;;;21.20;43.97;98264.88;4007609;87;21083;-84
2021/05/15 13:43:42;;;;;;;1.70;1.42;;;;;;;21.34;44.06;98254.52;4007579;87;21142;-84
2021/05/15 13:49:43;;;;;;;2.92;2.05;;;;;;;21.56;44.43;98251.70;4004591;87;21117;-85
2021/05/15 13:55:44;;;;;;;3.90;1.80;;;;;;;21.63;43.05;98243.05;3941327;89;21664;-85
2021/05/15 14:01:46;;;;;;;2.85;1.67;;;;;;;21.49;41.77;98242.29;3911996;89;21119;-85
2021/05/15 14:07:47;;;;;;;2.52;1.15;;;;;;;20.89;41.72;98232.95;3911651;89;21198;-84
2021/05/15 14:13:48;;;;;;;4.00;1.32;;;;;;;21.02;42.90;98229.45;3912063;89;21119;-85
2021/05/15 14:19:49;;;;;;;3.12;1.50;;;;;;;21.03;42.78;98225.42;3912054;89;21655;-84
2021/05/15 14:25:52;;;;;;;2.42;1.50;;;;;;;20.63;42.25;98226.12;3911589;89;21167;-85
2021/05/15 14:31:56;;;;;;;2.83;1.72;;;;;;;20.36;42.21;98223.25;3909614;89;21123;-85
2021/05/15 14:37:57;;;;;;;2.30;2.02;;;;;;;20.37;43.26;98216.48;4020011;87;21136;-83
2021/05/15 14:44:07;;;;;;;4.42;2.30;;;;;;;20.45;44.10;98210.01;4019724;87;21641;-84
2021/05/15 14:50:10;;;;;;;3.62;2.25;;;;;;;20.24;44.22;98204.69;4017253;87;21169;-86
2021/05/15 14:56:17;;;;;;;3.75;2.33;;;;;;;20.07;44.55;98213.09;3988032;87;21326;-84
2021/05/15 15:02:19;;;;;;;3.25;2.10;;;;;;;19.78;44.85;98200.91;4006139;87;21130;-85
2021/05/15 15:08:20;;;;;;;3.95;2.50;;;;;;;19.74;45.01;98195.33;4006713;87;21087;-84
2021/05/15 15:14:24;;;;;;;12.07;7.10;;;;;;;19.74;45.79;98189.77;4003756;87;21672;-84
2021/05/15 15:20:25;;;;;;;5.60;3.50;;;;;;;19.70;45.89;98180.82;4002605;87;21097;-84
2021/05/15 15:26:27;;;;;;;4.12;3.12;;;;;;;19.57;46.04;98178.13;4006295;87;21130;-84
2021/05/15 15:32:28;;;;;;;5.05;2.55;;;;;;;19.40;46.37;98179.56;4004431;87;21094;-84
2021/05/15 15:38:31;;;;;;;5.37;3.05;;;;;;;19.29;46.48;98183.34;3954982;89;21596;-83
2021/05/15 15:44:33;;;;;;;6.42;3.05;;;;;;;19.20;46.93;98174.91;4006567;87;21105;-83
2021/05/15 15:50:34;;;;;;;5.28;2.25;;;;;;;18.77;52.01;98207.36;4005090;87;21093;-86
2021/05/15 15:56:42;;;;;;;5.75;3.45;;;;;;;17.91;52.32;98222.39;4025994;87;21101;-86
2021/05/15 16:02:45;;;;;;;6.17;2.40;;;;;;;17.02;60.31;98233.62;4031723;87;21117;-85
2021/05/15 16:08:47;;;;;;;19.20;3.58;;;;;;;15.83;60.65;98243.39;3977026;88;21221;-83
2021/05/15 16:14:51;;;;;;;15.48;2.90;;;;;;;15.63;61.12;98252.47;4031805;87;21069;-83
2021/05/15 16:20:53;;;;;;;9.95;2.50;;;;;;;15.15;61.95;98219.15;4032280;87;21100;-83
2021/05/15 16:26:54;;;;;;;8.23;2.00;;;;;;;14.97;63.15;98217.31;4031541;87;21127;-84
2021/05/15 16:32:55;;;;;;;3.55;1.50;;;;;;;14.72;63.79;98210.10;4033750;86;21207;-83
2021/05/15 16:38:57;;;;;;;5.35;1.40;;;;;;;14.48;64.42;98209.95;4033628;87;21149;-84
2021/05/15 16:44:58;;;;;;;1.80;1.35;;;;;;;14.61;64.55;98205.38;4032854;87;21297;-83
2021/05/15 16:51:08;;;;;;;2.47;1.15;;;;;;;14.42;65.36;98195.11;4032640;87;21198;-84
2021/05/15 16:57:09;;;;;;;5.08;1.75;;;;;;;14.47;65.91;98193.23;3936880;88;21110;-84
2021/05/15 17:03:11;;;;;;;2.45;1.32;;;;;;;14.48;66.18;98193.42;3925955;88;21125;-84
2021/05/15 17:09:15;;;;;;;4.65;3.35;;;;;;;14.13;68.34;98195.34;3923773;89;21086;-85
2021/05/15 17:15:22;;;;;;;6.20;4.93;;;;;;;13.76;69.92;98203.77;3922386;89;21665;-84
2021/05/15 17:21:24;;;;;;;3.65;1.80;;;;;;;13.54;70.32;98216.25;3931710;89;21185;-84
2021/05/15 17:27:25;;;;;;;4.58;2.12;;;;;;;13.61;70.50;98238.14;3926345;88;21674;-83
2021/05/15 17:33:26;;;;;;;6.40;3.17;;;;;;;13.81;70.45;98238.45;3919890;89;21117;-83
2021/05/15 17:39:27;;;;;;;6.85;3.35;;;;;;;13.64;70.79;98244.22;3923490;89;21096;-83
2021/05/15 17:45:30;;;;;;;6.08;3.33;;;;;;;13.58;71.02;98231.50;3932846;89;21610;-84
2021/05/15 17:51:33;;;;;;;4.47;3.20;;;;;;;13.56;71.30;98229.76;3919807;88;21085;-84
2021/05/15 17:57:35;;;;;;;5.60;2.80;;;;;;;13.29;71.98;98237.77;3947722;89;21088;-83
2021/05/15 18:03:43;;;;;;;9.08;2.90;;;;;;;13.42;72.32;98236.81;3916058;89;21079;-82
2021/05/15 18:09:48;;;;;;;4.92;3.33;;;;;;;13.50;72.52;98236.15;3913514;89;21702;-83
2021/05/15 18:15:51;;;;;;;4.83;3.87;;;;;;;13.66;72.94;98227.47;3915137;89;21230;-82
2021/05/15 18:21:53;;;;;;;7.15;3.87;;;;;;;13.72;73.07;98237.41;3915722;89;22104;-83
2021/05/15 18:27:54;;;;;;;7.85;5.28;;;;;;;13.71;73.19;98229.77;3915975;89;21135;-83
2021/05/15 18:33:56;;;;;;;8.28;5.33;;;;;;;13.43;73.89;98238.97;4017648;87;21108;-87
2021/05/15 18:39:57;;;;;;;6.83;5.50;;;;;;;13.27;76.30;98243.67;3945370;89;21092;-84
2021/05/15 18:46:00;;;;;;;9.98;6.95;;;;;;;13.10;75.50;98254.28;3917285;89;21099;-83
2021/05/15 18:52:01;;;;;;;9.58;6.20;;;;;;;13.15;75.68;98259.33;4023536;87;21101;-84
2021/05/15 18:58:03;;;;;;;10.70;7.10;;;;;;;13.20;75.88;98252.60;3931761;89;21105;-83
2021/05/15 19:04:06;;;;;;;11.10;7.80;;;;;;;13.31;76.07;98243.64;3936361;88;22401;-83
2021/05/15 19:10:10;;;;;;;11.30;7.15;;;;;;;13.26;76.34;98239.97;3919864;89;21105;-84
2021/05/15 19:16:14;;;;;;;9.30;6.28;;;;;;;13.22;76.25;98241.37;3924522;89;21133;-83
2021/05/15 19:22:15;;;;;;;9.08;6.55;;;;;;;13.15;76.74;98235.19;3932678;88;21101;-83
2021/05/15 19:28:17;;;;;;;10.38;7.60;;;;;;;13.24;76.86;98221.14;3926939;89;21170;-83
2021/05/15 19:34:18;;;;;;;12.37;7.62;;;;;;;13.02;76.87;98217.66;3927041;89;21621;-83
2021/05/15 19:40:21;;;;;;;17.55;9.80;;;;;;;12.93;77.41;98214.59;3931688;88;21078;-83
2021/05/15 19:46:23;;;;;;;15.40;9.58;;;;;;;12.89;77.47;98213.25;3922793;89;21137;-83
2021/05/15 19:52:24;;;;;;;15.90;9.28;;;;;;;12.84;77.74;98214.30;3941236;87;21106;-83
2021/05/15 19:58:32;;;;;;;18.80;11.18;;;;;;;12.80;77.80;98208.05;4023059;86;21097;-83
2021/05/15 20:04:34;;;;;;;13.80;9.93;;;;;;;12.67;78.16;98200.92;3877646;90;21136;-83
2021/05/15 20:10:37;;;;;;;23.62;16.48;;;;;;;12.61;78.47;98202.55;3844746;91;21129;-82
2021/05/15 20:16:39;;;;;;;19.57;14.05;;;;;;;12.66;78.16;98204.86;3844097;91;21168;-83
2021/05/15 20:22:40;;;;;;;22.42;13.53;;;;;;;12.48;78.57;98205.02;3845921;90;21109;-83
2021/05/15 20:28:41;;;;;;;15.38;9.90;;;;;;;12.35;79.10;98199.08;3845964;91;21124;-83
2021/05/15 20:34:43;;;;;;;15.38;9.78;;;;;;;12.27;79.31;98196.20;3845262;91;21088;-83
2021/05/15 20:40:45;;;;;;;13.58;9.30;;;;;;;12.24;79.58;98195.05;3844213;91;21596;-83
2021/05/15 20:46:49;;;;;;;45.73;27.67;;;;;;;12.23;79.75;98199.58;3848774;91;21688;-83
2021/05/15 20:52:51;;;;;;;28.87;17.90;;;;;;;12.14;79.36;98177.28;3848786;91;21204;-84
2021/05/15 20:58:53;;;;;;;29.65;19.77;;;;;;;12.11;79.99;98177.52;3848451;91;21097;-83
2021/05/15 21:04:54;;;;;;;28.23;17.25;;;;;;;12.01;79.82;98173.49;3849364;91;21667;-84
2021/05/15 21:10:56;;;;;;;20.08;15.00;;;;;;;11.97;80.43;98174.09;3849770;91;21108;-84
2021/05/15 21:16:58;;;;;;;23.02;12.88;;;;;;;12.14;80.42;98168.47;3849832;90;21084;-84
2021/05/15 21:23:04;;;;;;;19.95;12.43;;;;;;;12.14;80.45;98163.57;3847438;91;21682;-84
2021/05/15 21:29:05;;;;;;;14.73;10.67;;;;;;;12.08;80.55;98155.01;3846112;90;21060;-84
2021/05/15 21:35:08;;;;;;;21.87;12.00;;;;;;;12.12;80.59;98148.89;3849989;91;21112;-84
2021/05/15 21:41:10;;;;;;;15.98;9.45;;;;;;;12.06;80.38;98150.51;3848439;91;22502;-84
2021/05/15 21:47:12;;;;;;;13.72;8.83;;;;;;;11.92;80.85;98149.83;3847508;90;21112;-84
2021/05/15 21:53:14;;;;;;;19.95;10.53;;;;;;;11.83;81.25;98155.00;3847430;90;21064;-84
2021/05/15 21:59:15;;;;;;;15.05;8.88;;;;;;;11.69;81.01;98151.78;3907032;89;21125;-84
2021/05/15 22:05:17;;;;;;;14.63;8.60;;;;;;;11.59;81.75;98152.58;3905050;89;21792;-84
2021/05/15 22:11:19;;;;;;;12.60;8.13;;;;;;;11.57;82.51;98142.63;3909438;89;21055;-84
2021/05/15 22:17:20;;;;;;;11.43;8.63;;;;;;;11.74;82.54;98132.16;3906203;89;21627;-84
2021/05/15 22:23:22;;;;;;;15.65;8.63;;;;;;;11.78;82.27;98123.89;3906011;89;21631;-84
2021/05/15 22:29:23;;;;;;;13.88;8.25;;;;;;;11.80;82.46;98119.58;3911914;89;21159;-84
2021/05/15 22:35:25;;;;;;;10.03;7.17;;;;;;;11.71;82.49;98105.55;3902738;89;21098;-84
2021/05/15 22:41:28;;;;;;;12.05;7.15;;;;;;;11.58;82.72;98108.55;3912910;89;21754;-84
2021/05/15 22:47:29;;;;;;;9.85;6.30;;;;;;;11.61;82.78;98106.38;3904033;89;21207;-84
2021/05/15 22:53:31;;;;;;;9.20;6.97;;;;;;;11.62;82.75;98105.18;3910656;87;21087;-84
2021/05/15 22:59:32;;;;;;;9.45;6.75;;;;;;;11.55;82.48;98104.45;3954225;88;21667;-83
2021/05/15 23:05:33;;;;;;;9.90;6.10;;;;;;;11.46;82.70;98099.44;3874407;90;21080;-84
2021/05/15 23:11:35;;;;;;;10.63;6.17;;;;;;;11.39;82.87;98093.99;3948771;87;21086;-84
2021/05/15 23:17:36;;;;;;;9.85;5.40;;;;;;;11.43;83.01;98091.23;3878339;90;21526;-83
2021/05/15 23:23:38;;;;;;;8.13;5.17;;;;;;;11.46;83.07;98087.11;3876886;90;21097;-83
2021/05/15 23:29:39;;;;;;;7.85;5.40;;;;;;;11.33;82.90;98081.91;3976365;87;21586;-84
2021/05/15 23:35:42;;;;;;;7.00;5.25;;;;;;;11.31;82.99;98080.75;3877618;89;21779;-84
2021/05/15 23:41:43;;;;;;;6.83;5.03;;;;;;;11.23;83.21;98081.97;3955968;89;21077;-84
2021/05/15 23:47:45;;;;;;;14.40;4.47;;;;;;;11.28;83.47;98080.16;3876684;90;21090;-84
2021/05/15 23:53:46;;;;;;;10.10;5.42;;;;;;;11.31;83.38;98074.66;3978005;88;21662;-84
2021/05/15 23:59:48;;;;;;;7.92;5.70;;;;;;;11.25;83.18;98070.00;3880832;89;21632;-84
